Time;durP1;ratioP1;P1;durP2;ratioP2;P2;SDS_P1;SDS_P2;PMS_P1;PMS_P2;Temp;Humidity;BMP_temperature;BMP_pressure;BME280_temperature;BME280_humidity;BME280_pressure;Samples;Min_cycle;Max_cycle;Signal;HPM_P1;HPM_P2
2022/08/25 00:01:13;;;;;;;29.23;22.75;;;;;;;;;;5017320;28;20056;-78
2022/08/25 00:03:40;;;;;;;25.23;20.98;;;;;;;;;;5050567;28;20116;-79
2022/08/25 00:06:06;;;;;;;24.95;22.35;;;;;;;;;;5053147;28;20092;-77
2022/08/25 00:08:33;;;;;;;22.88;20.33;;;;;;;;;;5052821;28;20048;-78
2022/08/25 00:11:00;;;;;;;24.08;18.80;;;;;;;;;;5053467;28;20064;-78
2022/08/25 00:13:28;;;;;;;22.67;20.00;;;;;;;;;;5036046;28;20120;-78
2022/08/25 00:15:54;;;;;;;21.63;19.38;;;;;;;;;;5069303;28;20393;-78
2022/08/25 00:18:20;;;;;;;22.15;19.80;;;;;;;;;;5053036;28;20524;-78
2022/08/25 00:20:47;;;;;;;24.02;19.55;;;;;;;;;;5053978;28;20493;-78
2022/08/25 00:23:13;;;;;;;25.15;20.27;;;;;;;;;;5035286;28;20047;-78
2022/08/25 00:25:39;;;;;;;23.65;19.45;;;;;;;;;;5052579;28;20033;-78
2022/08/25 00:28:05;;;;;;;21.17;17.58;;;;;;;;;;5052431;28;20044;-78
2022/08/25 00:30:31;;;;;;;20.52;18.42;;;;;;;;;;5052544;28;20099;-78
2022/08/25 00:32:57;;;;;;;22.48;18.30;;;;;;;;;;5052637;28;20053;-78
2022/08/25 00:35:24;;;;;;;25.42;17.70;;;;;;;;;;5052703;28;20041;-78
2022/08/25 00:37:50;;;;;;;20.13;17.50;;;;;;;;;;5051346;28;20549;-78
2022/08/25 00:40:16;;;;;;;18.30;15.15;;;;;;;;;;5052144;28;20033;-78
2022/08/25 00:42:42;;;;;;;21.10;18.00;;;;;;;;;;5051128;28;20083;-78
2022/08/25 00:45:09;;;;;;;17.60;15.77;;;;;;;;;;5052218;28;20075;-78
2022/08/25 00:47:35;;;;;;;19.70;15.93;;;;;;;;;;5067765;28;20094;-77
2022/08/25 00:50:04;;;;;;;17.45;15.25;;;;;;;;;;5027890;28;20057;-78
2022/08/25 00:52:37;;;;;;;17.52;14.02;;;;;;;;;;5051978;28;20083;-78
2022/08/25 00:55:06;;;;;;;17.70;15.80;;;;;;;;;;5048696;28;20067;-78
2022/08/25 00:57:34;;;;;;;19.42;14.18;;;;;;;;;;5051269;28;20051;-78
2022/08/25 01:00:00;;;;;;;15.02;13.43;;;;;;;;;;5051666;28;20049;-78
2022/08/25 01:02:26;;;;;;;14.98;13.38;;;;;;;;;;5051258;28;20060;-78
2022/08/25 01:04:52;;;;;;;14.38;12.82;;;;;;;;;;5035151;28;20501;-78
2022/08/25 01:07:21;;;;;;;15.30;12.50;;;;;;;;;;5051634;28;20045;-78
2022/08/25 01:09:49;;;;;;;14.90;11.90;;;;;;;;;;5051570;28;20550;-78
2022/08/25 01:12:16;;;;;;;16.52;10.57;;;;;;;;;;5052650;28;20045;-78
2022/08/25 01:14:43;;;;;;;12.73;10.55;;;;;;;;;;5051340;28;20048;-78
2022/08/25 01:17:09;;;;;;;12.27;10.95;;;;;;;;;;5035351;28;20064;-78
2022/08/25 01:19:36;;;;;;;12.82;10.13;;;;;;;;;;5050987;28;20048;-78
2022/08/25 01:22:02;;;;;;;11.98;9.43;;;;;;;;;;5052439;28;20561;-78
2022/08/25 01:24:35;;;;;;;12.60;9.50;;;;;;;;;;5051651;28;20073;-78
2022/08/25 01:27:01;;;;;;;12.05;9.00;;;;;;;;;;5051658;28;20095;-78
2022/08/25 01:29:27;;;;;;;9.05;8.10;;;;;;;;;;5051068;28;20033;-78
2022/08/25 01:31:56;;;;;;;12.40;7.25;;;;;;;;;;5051458;28;20082;-78
2022/08/25 01:34:22;;;;;;;9.70;7.43;;;;;;;;;;5051394;28;20068;-78
2022/08/25 01:36:48;;;;;;;10.00;6.10;;;;;;;;;;5051075;28;20076;-77
2022/08/25 01:39:15;;;;;;;9.68;6.20;;;;;;;;;;5014974;28;20042;-78
2022/08/25 01:41:44;;;;;;;9.00;6.38;;;;;;;;;;5067078;28;20041;-78
2022/08/25 01:44:11;;;;;;;8.00;6.10;;;;;;;;;;5051178;28;20414;-77
2022/08/25 01:46:37;;;;;;;7.78;5.82;;;;;;;;;;5034796;28;20542;-78
2022/08/25 01:49:03;;;;;;;7.72;5.38;;;;;;;;;;5051261;28;20501;-77
2022/08/25 01:51:33;;;;;;;8.23;6.30;;;;;;;;;;5066423;28;20064;-78
2022/08/25 01:53:59;;;;;;;10.90;5.93;;;;;;;;;;5050675;28;20044;-78
2022/08/25 01:56:25;;;;;;;9.60;6.50;;;;;;;;;;5051290;28;20494;-78
2022/08/25 01:58:52;;;;;;;11.75;6.00;;;;;;;;;;5050954;28;20532;-78
2022/08/25 02:01:21;;;;;;;9.65;5.47;;;;;;;;;;5050881;28;20041;-78
2022/08/25 02:03:48;;;;;;;8.98;5.72;;;;;;;;;;5050688;28;20044;-78
2022/08/25 02:06:15;;;;;;;7.38;5.13;;;;;;;;;;5045661;28;20658;-78
2022/08/25 02:08:42;;;;;;;8.32;5.40;;;;;;;;;;5048518;28;20091;-77
2022/08/25 02:11:13;;;;;;;7.45;5.13;;;;;;;;;;5046392;28;20037;-78
2022/08/25 02:13:39;;;;;;;8.63;4.55;;;;;;;;;;5048378;28;20040;-78
2022/08/25 02:16:06;;;;;;;9.85;4.70;;;;;;;;;;5048277;28;20071;-77
2022/08/25 02:18:32;;;;;;;9.68;4.80;;;;;;;;;;5048764;28;20036;-77
2022/08/25 02:20:58;;;;;;;7.95;4.82;;;;;;;;;;5040107;28;20055;-77
2022/08/25 02:23:25;;;;;;;9.13;5.20;;;;;;;;;;5046325;28;20086;-77
2022/08/25 02:25:52;;;;;;;7.22;4.45;;;;;;;;;;5047998;28;20045;-77
2022/08/25 02:28:18;;;;;;;8.98;4.85;;;;;;;;;;5042732;28;20401;-77
2022/08/25 02:30:44;;;;;;;6.80;4.70;;;;;;;;;;5050307;28;20449;-76
2022/08/25 02:33:11;;;;;;;9.95;4.43;;;;;;;;;;5030271;28;20037;-78
2022/08/25 02:35:37;;;;;;;7.35;4.20;;;;;;;;;;5048637;28;20045;-77
2022/08/25 02:38:04;;;;;;;6.45;4.25;;;;;;;;;;5032545;28;20045;-78
2022/08/25 02:40:30;;;;;;;7.50;4.47;;;;;;;;;;5047563;28;20572;-77
2022/08/25 02:42:56;;;;;;;7.43;4.10;;;;;;;;;;5048197;28;20697;-78
2022/08/25 02:45:22;;;;;;;6.43;4.65;;;;;;;;;;5045657;28;20059;-78
2022/08/25 02:47:48;;;;;;;9.68;4.50;;;;;;;;;;5051734;28;20128;-77
2022/08/25 02:50:14;;;;;;;7.38;4.38;;;;;;;;;;5054743;28;20136;-78
2022/08/25 02:52:41;;;;;;;5.13;3.80;;;;;;;;;;5052452;28;20463;-78
2022/08/25 02:55:09;;;;;;;6.53;4.40;;;;;;;;;;5052705;28;20072;-78
2022/08/25 02:57:35;;;;;;;8.85;4.13;;;;;;;;;;5051686;28;20079;-78
2022/08/25 03:00:01;;;;;;;5.65;4.18;;;;;;;;;;5054381;28;20049;-77
2022/08/25 03:02:27;;;;;;;9.93;4.13;;;;;;;;;;5054696;28;20078;-78
2022/08/25 03:04:53;;;;;;;8.75;4.00;;;;;;;;;;5053868;28;20124;-78
2022/08/25 03:07:20;;;;;;;8.43;4.10;;;;;;;;;;5054418;28;20045;-78
2022/08/25 03:09:46;;;;;;;6.93;4.07;;;;;;;;;;5054068;28;20053;-78
2022/08/25 03:12:13;;;;;;;9.45;4.18;;;;;;;;;;5053847;28;20052;-78
2022/08/25 03:14:39;;;;;;;6.32;3.78;;;;;;;;;;5054027;28;20044;-78
2022/08/25 03:17:06;;;;;;;8.70;4.45;;;;;;;;;;5037216;28;20032;-77
2022/08/25 03:19:33;;;;;;;6.57;3.63;;;;;;;;;;5054074;28;20060;-78
2022/08/25 03:21:59;;;;;;;7.63;4.40;;;;;;;;;;5053822;28;20111;-78
2022/08/25 03:24:25;;;;;;;5.50;3.95;;;;;;;;;;5060435;28;20038;-78
2022/08/25 03:26:52;;;;;;;6.38;3.78;;;;;;;;;;5053573;28;20041;-78
2022/08/25 03:29:19;;;;;;;6.43;3.50;;;;;;;;;;5037418;28;20037;-78
2022/08/25 03:31:45;;;;;;;8.13;3.75;;;;;;;;;;5053927;28;20041;-78
2022/08/25 03:34:17;;;;;;;7.20;3.83;;;;;;;;;;5053256;28;20123;-78
2022/08/25 03:36:45;;;;;;;8.45;3.55;;;;;;;;;;5053860;28;20033;-78
2022/08/25 03:39:11;;;;;;;4.90;3.65;;;;;;;;;;5053445;28;20041;-78
2022/08/25 03:41:37;;;;;;;5.18;3.28;;;;;;;;;;5053933;28;20521;-78
2022/08/25 03:44:04;;;;;;;6.00;3.70;;;;;;;;;;5053355;28;20116;-78
2022/08/25 03:46:32;;;;;;;8.57;3.63;;;;;;;;;;5068478;28;20064;-78
2022/08/25 03:49:00;;;;;;;7.30;4.07;;;;;;;;;;5053072;28;20061;-78
2022/08/25 03:51:31;;;;;;;7.63;3.60;;;;;;;;;;5054121;28;20068;-78
2022/08/25 03:53:57;;;;;;;9.90;4.03;;;;;;;;;;5052824;28;20073;-78
2022/08/25 03:56:24;;;;;;;7.93;3.60;;;;;;;;;;5053032;28;20134;-78
2022/08/25 03:58:50;;;;;;;5.28;3.72;;;;;;;;;;5053179;28;20044;-78
2022/08/25 04:01:16;;;;;;;6.05;3.80;;;;;;;;;;5052302;28;20371;-78
2022/08/25 04:03:42;;;;;;;6.40;3.38;;;;;;;;;;5053147;28;20040;-78
2022/08/25 04:06:09;;;;;;;9.05;3.65;;;;;;;;;;5047198;28;20497;-78
2022/08/25 04:08:35;;;;;;;8.82;3.78;;;;;;;;;;5051114;28;20553;-78
2022/08/25 04:11:09;;;;;;;5.72;3.80;;;;;;;;;;5047959;28;20049;-78
2022/08/25 04:13:35;;;;;;;7.07;3.50;;;;;;;;;;5053505;28;20432;-78
2022/08/25 04:16:02;;;;;;;6.25;3.33;;;;;;;;;;5041902;28;20052;-78
2022/08/25 04:18:30;;;;;;;6.30;3.70;;;;;;;;;;5036232;28;20037;-78
2022/08/25 04:21:03;;;;;;;7.30;3.75;;;;;;;;;;5049869;28;20116;-77
2022/08/25 04:23:29;;;;;;;8.20;3.67;;;;;;;;;;5048270;28;20075;-77
2022/08/25 04:25:55;;;;;;;7.18;3.70;;;;;;;;;;5052515;28;20067;-78
2022/08/25 04:28:21;;;;;;;6.63;4.05;;;;;;;;;;5052577;28;20561;-77
2022/08/25 04:30:47;;;;;;;10.80;4.35;;;;;;;;;;5050850;28;20045;-77
2022/08/25 04:33:13;;;;;;;5.72;4.00;;;;;;;;;;5048626;28;20037;-78
2022/08/25 04:35:40;;;;;;;5.38;4.05;;;;;;;;;;5043320;28;20406;-78
2022/08/25 04:38:06;;;;;;;6.25;4.30;;;;;;;;;;5044859;28;20037;-79
2022/08/25 04:40:32;;;;;;;5.55;3.75;;;;;;;;;;5048978;28;20037;-79
2022/08/25 04:42:58;;;;;;;7.38;4.07;;;;;;;;;;5035428;28;20037;-79
2022/08/25 04:45:25;;;;;;;8.43;4.50;;;;;;;;;;5046740;28;20041;-79
2022/08/25 04:47:51;;;;;;;7.70;4.55;;;;;;;;;;5035350;28;20053;-79
2022/08/25 04:50:17;;;;;;;5.93;3.88;;;;;;;;;;5038467;28;20517;-79
2022/08/25 04:52:43;;;;;;;7.10;4.28;;;;;;;;;;5051988;28;20053;-79
2022/08/25 04:55:09;;;;;;;8.98;4.00;;;;;;;;;;5032773;28;20072;-79
2022/08/25 04:57:36;;;;;;;7.00;3.95;;;;;;;;;;5056357;28;20068;-77
2022/08/25 05:00:03;;;;;;;7.75;4.15;;;;;;;;;;5048177;28;20041;-77
2022/08/25 05:02:29;;;;;;;6.57;3.90;;;;;;;;;;5050376;28;20039;-77
2022/08/25 05:04:55;;;;;;;7.00;4.20;;;;;;;;;;5051920;28;20045;-78
2022/08/25 05:07:21;;;;;;;9.43;3.80;;;;;;;;;;5036927;28;20049;-77
2022/08/25 05:09:47;;;;;;;6.90;3.80;;;;;;;;;;5044565;28;20041;-77
2022/08/25 05:12:13;;;;;;;5.55;3.53;;;;;;;;;;5051232;28;20145;-78
2022/08/25 05:14:39;;;;;;;6.70;3.60;;;;;;;;;;5038412;28;20521;-77
2022/08/25 05:17:05;;;;;;;6.50;3.90;;;;;;;;;;5039087;28;20061;-77
2022/08/25 05:19:32;;;;;;;6.25;3.95;;;;;;;;;;5045375;28;20434;-77
2022/08/25 05:21:58;;;;;;;8.85;3.47;;;;;;;;;;5045100;28;20069;-77
2022/08/25 05:24:25;;;;;;;8.90;3.97;;;;;;;;;;5041210;28;20047;-78
2022/08/25 05:26:51;;;;;;;6.63;3.60;;;;;;;;;;5050714;28;20118;-78
2022/08/25 05:29:18;;;;;;;5.50;3.42;;;;;;;;;;5060157;28;20401;-77
2022/08/25 05:31:44;;;;;;;9.65;3.78;;;;;;;;;;5037553;28;20045;-77
2022/08/25 05:34:11;;;;;;;5.85;3.30;;;;;;;;;;5039496;28;20060;-77
2022/08/25 05:36:41;;;;;;;5.63;3.40;;;;;;;;;;5039159;28;20039;-77
2022/08/25 05:39:08;;;;;;;7.45;3.65;;;;;;;;;;5037699;28;20076;-77
2022/08/25 05:41:34;;;;;;;5.70;3.45;;;;;;;;;;5033845;28;20037;-78
2022/08/25 05:44:00;;;;;;;5.88;3.22;;;;;;;;;;5050908;28;20095;-78
2022/08/25 05:46:26;;;;;;;8.93;3.65;;;;;;;;;;5050548;28;20517;-77
2022/08/25 05:48:53;;;;;;;4.95;3.10;;;;;;;;;;5036417;28;20102;-77
2022/08/25 05:51:20;;;;;;;7.40;3.22;;;;;;;;;;5040518;28;20128;-77
2022/08/25 05:53:49;;;;;;;8.65;3.55;;;;;;;;;;5038188;28;20446;-78
2022/08/25 05:56:16;;;;;;;5.95;3.42;;;;;;;;;;5038884;28;20037;-78
2022/08/25 05:58:42;;;;;;;8.15;3.47;;;;;;;;;;5047219;28;20559;-78
2022/08/25 06:03:54;;;;;;;7.25;3.35;;;;;;;;;;5050444;28;20048;-78
2022/08/25 06:06:21;;;;;;;8.90;3.30;;;;;;;;;;5038469;28;20056;-77
2022/08/25 06:08:47;;;;;;;6.72;3.30;;;;;;;;;;5046343;28;20127;-77
2022/08/25 06:11:15;;;;;;;10.77;3.20;;;;;;;;;;5049401;28;20136;-78
2022/08/25 06:13:41;;;;;;;7.18;3.10;;;;;;;;;;5049354;28;20045;-78
2022/08/25 06:16:07;;;;;;;7.55;3.70;;;;;;;;;;5046906;28;20049;-78
2022/08/25 06:18:33;;;;;;;7.13;3.38;;;;;;;;;;5032735;28;20108;-77
2022/08/25 06:21:07;;;;;;;5.78;3.17;;;;;;;;;;5037779;28;20056;-78
2022/08/25 06:23:33;;;;;;;4.85;2.97;;;;;;;;;;5050447;28;20045;-76
2022/08/25 06:25:59;;;;;;;5.45;3.15;;;;;;;;;;5035036;28;20069;-79
2022/08/25 06:28:25;;;;;;;7.00;3.25;;;;;;;;;;5037091;28;20764;-78
2022/08/25 06:30:57;;;;;;;8.38;3.00;;;;;;;;;;5035197;28;20051;-78
2022/08/25 06:33:23;;;;;;;9.13;3.25;;;;;;;;;;5044504;28;20073;-78
2022/08/25 06:35:52;;;;;;;8.38;3.05;;;;;;;;;;5038425;28;20095;-77
2022/08/25 06:38:18;;;;;;;5.75;3.13;;;;;;;;;;5040895;28;20083;-78
2022/08/25 06:40:46;;;;;;;5.13;2.92;;;;;;;;;;5030305;28;20509;-78
2022/08/25 06:43:12;;;;;;;5.55;2.90;;;;;;;;;;5043443;28;20037;-78
2022/08/25 06:45:39;;;;;;;6.03;3.05;;;;;;;;;;5047540;28;20048;-78
2022/08/25 06:48:05;;;;;;;3.92;2.65;;;;;;;;;;5047163;28;20044;-77
2022/08/25 06:50:31;;;;;;;6.40;3.20;;;;;;;;;;5037788;28;20080;-78
2022/08/25 06:52:57;;;;;;;7.82;2.88;;;;;;;;;;5038604;28;20088;-78
2022/08/25 06:55:23;;;;;;;4.68;3.00;;;;;;;;;;5039828;28;20053;-78
2022/08/25 06:57:52;;;;;;;5.75;2.70;;;;;;;;;;5046750;28;20051;-78
2022/08/25 07:00:18;;;;;;;6.35;3.10;;;;;;;;;;5050125;28;20077;-78
2022/08/25 07:02:45;;;;;;;7.07;3.22;;;;;;;;;;5050911;28;20049;-78
2022/08/25 07:05:11;;;;;;;5.85;2.95;;;;;;;;;;5051000;28;20045;-78
2022/08/25 07:07:37;;;;;;;6.25;2.90;;;;;;;;;;5051247;28;20052;-77
2022/08/25 07:10:04;;;;;;;4.32;2.75;;;;;;;;;;5034224;28;20494;-78
2022/08/25 07:12:30;;;;;;;6.60;3.08;;;;;;;;;;5033483;28;20506;-77
2022/08/25 07:14:56;;;;;;;6.18;3.20;;;;;;;;;;5043185;28;20053;-78
2022/08/25 07:17:22;;;;;;;7.38;3.30;;;;;;;;;;5031506;28;20029;-78
2022/08/25 07:19:49;;;;;;;4.22;2.53;;;;;;;;;;5039331;28;20491;-78
2022/08/25 07:22:15;;;;;;;6.85;3.00;;;;;;;;;;5039261;28;20029;-78
2022/08/25 07:24:41;;;;;;;5.78;3.03;;;;;;;;;;5048993;28;20485;-79
2022/08/25 07:27:07;;;;;;;6.20;2.95;;;;;;;;;;5049267;28;20064;-79
2022/08/25 07:29:37;;;;;;;5.78;2.70;;;;;;;;;;5047735;28;20071;-78
2022/08/25 07:32:04;;;;;;;7.88;2.63;;;;;;;;;;5050260;28;20041;-78
2022/08/25 07:37:15;;;;;;;;;;;;;;;;;;5047634;28;20041;-79
2022/08/25 07:39:41;;;;;;;8.20;2.60;;;;;;;;;;5051708;28;19979;-79
2022/08/25 07:42:08;;;;;;;7.47;3.08;;;;;;;;;;5052072;28;20048;-78
2022/08/25 07:44:34;;;;;;;6.22;2.63;;;;;;;;;;5035187;28;20033;-78
2022/08/25 07:47:00;;;;;;;4.57;2.53;;;;;;;;;;5047652;28;20076;-78
2022/08/25 07:49:26;;;;;;;6.88;2.70;;;;;;;;;;5049958;28;20056;-78
2022/08/25 07:51:53;;;;;;;4.95;2.60;;;;;;;;;;5034773;28;20041;-79
2022/08/25 07:54:20;;;;;;;9.23;2.50;;;;;;;;;;5052645;28;20053;-78
2022/08/25 07:56:47;;;;;;;8.32;2.80;;;;;;;;;;5051696;28;20075;-78
2022/08/25 07:59:13;;;;;;;5.00;2.70;;;;;;;;;;5053765;28;20106;-77
2022/08/25 08:01:39;;;;;;;5.68;2.70;;;;;;;;;;5052831;28;20079;-78
2022/08/25 08:04:05;;;;;;;7.32;2.38;;;;;;;;;;5052923;28;20048;-78
2022/08/25 08:06:31;;;;;;;6.88;2.60;;;;;;;;;;5036986;28;20496;-78
2022/08/25 08:08:58;;;;;;;9.35;2.80;;;;;;;;;;5053012;28;20041;-78
2022/08/25 08:11:26;;;;;;;6.70;2.60;;;;;;;;;;5047386;28;20533;-79
2022/08/25 08:13:53;;;;;;;5.80;2.40;;;;;;;;;;5051985;28;20049;-79
2022/08/25 08:16:21;;;;;;;5.47;2.67;;;;;;;;;;5036299;28;20167;-79
2022/08/25 08:18:47;;;;;;;8.13;2.53;;;;;;;;;;5052935;28;20071;-79
2022/08/25 08:21:15;;;;;;;6.97;2.60;;;;;;;;;;5052869;28;20045;-79
2022/08/25 08:23:41;;;;;;;5.90;2.53;;;;;;;;;;5053806;28;20112;-79
2022/08/25 08:26:07;;;;;;;4.68;2.20;;;;;;;;;;5068565;28;20072;-78
2022/08/25 08:28:33;;;;;;;7.20;2.55;;;;;;;;;;5035707;28;20044;-78
2022/08/25 08:31:00;;;;;;;5.93;2.45;;;;;;;;;;5036167;28;20071;-79
2022/08/25 08:33:26;;;;;;;8.00;2.53;;;;;;;;;;5052393;28;20036;-78
2022/08/25 08:36:05;;;;;;;5.63;2.50;;;;;;;;;;5052748;28;20047;-78
2022/08/25 08:38:32;;;;;;;5.85;2.20;;;;;;;;;;5035720;28;20094;-79
2022/08/25 08:43:55;;;;;;;9.70;2.58;;;;;;;;;;5040844;28;20115;-79
2022/08/25 08:46:22;;;;;;;7.57;2.40;;;;;;;;;;5034895;28;20071;-79
2022/08/25 08:48:58;;;;;;;5.60;2.45;;;;;;;;;;5052159;28;20398;-79
2022/08/25 08:51:32;;;;;;;5.65;1.90;;;;;;;;;;5051841;28;20049;-78
2022/08/25 08:54:01;;;;;;;5.30;2.10;;;;;;;;;;5039341;28;20037;-79
2022/08/25 08:56:34;;;;;;;5.88;2.10;;;;;;;;;;5050713;28;20178;-79
2022/08/25 08:59:12;;;;;;;5.40;2.58;;;;;;;;;;5035084;28;20053;-79
2022/08/25 09:01:56;;;;;;;7.13;2.15;;;;;;;;;;5052335;28;20052;-79
2022/08/25 09:04:22;;;;;;;9.23;2.33;;;;;;;;;;5051666;28;20041;-79
2022/08/25 09:06:49;;;;;;;6.18;2.17;;;;;;;;;;5051356;28;20509;-78
2022/08/25 09:09:19;;;;;;;8.20;2.10;;;;;;;;;;5033710;28;20044;-78
2022/08/25 09:11:58;;;;;;;3.00;1.95;;;;;;;;;;5051450;28;20033;-81
2022/08/25 09:14:42;;;;;;;4.43;1.98;;;;;;;;;;5035037;28;20394;-81
2022/08/25 09:17:27;;;;;;;6.25;2.35;;;;;;;;;;5034682;28;20036;-81
2022/08/25 09:19:53;;;;;;;5.60;2.00;;;;;;;;;;5034847;28;20037;-78
2022/08/25 09:22:45;;;;;;;6.45;2.30;;;;;;;;;;5053034;28;20048;-79
2022/08/25 09:25:15;;;;;;;3.25;1.80;;;;;;;;;;5052372;28;20042;-78
2022/08/25 09:27:57;;;;;;;3.65;2.00;;;;;;;;;;5050117;28;20505;-79
2022/08/25 09:30:23;;;;;;;2.85;1.75;;;;;;;;;;5035638;28;20037;-78
2022/08/25 09:32:52;;;;;;;7.20;1.90;;;;;;;;;;5030849;28;20049;-79
2022/08/25 09:35:29;;;;;;;4.45;1.75;;;;;;;;;;5043116;28;20052;-79
2022/08/25 09:38:00;;;;;;;4.40;1.80;;;;;;;;;;5054872;28;20037;-79
2022/08/25 09:40:28;;;;;;;11.38;2.15;;;;;;;;;;5044003;28;20706;-79
2022/08/25 09:42:55;;;;;;;4.20;1.70;;;;;;;;;;5047145;28;20040;-79
2022/08/25 09:45:33;;;;;;;6.55;1.63;;;;;;;;;;5040069;28;20560;-78
2022/08/25 09:47:59;;;;;;;5.05;1.70;;;;;;;;;;5044463;28;20056;-78
2022/08/25 09:50:29;;;;;;;4.78;1.50;;;;;;;;;;5033656;28;20560;-79
2022/08/25 09:52:57;;;;;;;6.55;1.70;;;;;;;;;;5049264;28;20517;-79
2022/08/25 09:55:30;;;;;;;3.15;1.60;;;;;;;;;;5041890;28;20076;-78
2022/08/25 09:57:59;;;;;;;6.85;1.80;;;;;;;;;;5047256;28;20486;-78
2022/08/25 10:00:27;;;;;;;5.63;1.88;;;;;;;;;;5030236;28;20044;-79
2022/08/25 10:03:05;;;;;;;4.05;1.80;;;;;;;;;;5034530;28;20041;-78
2022/08/25 10:05:34;;;;;;;3.53;1.67;;;;;;;;;;5050590;28;20045;-78
2022/08/25 10:08:03;;;;;;;4.22;1.80;;;;;;;;;;5050523;28;20044;-78
2022/08/25 10:10:34;;;;;;;4.38;1.70;;;;;;;;;;5035194;28;20150;-79
2022/08/25 10:13:02;;;;;;;4.68;1.85;;;;;;;;;;5051219;28;20048;-78
2022/08/25 10:15:28;;;;;;;6.03;1.60;;;;;;;;;;5035006;28;20056;-79
2022/08/25 10:17:55;;;;;;;4.05;1.80;;;;;;;;;;5066967;28;20041;-79
2022/08/25 10:20:27;;;;;;;4.15;1.85;;;;;;;;;;5035499;28;20421;-78
2022/08/25 10:23:08;;;;;;;3.97;1.67;;;;;;;;;;5049709;28;20087;-76
2022/08/25 10:25:34;;;;;;;3.38;1.70;;;;;;;;;;5049577;28;20041;-77
2022/08/25 10:28:20;;;;;;;5.43;1.77;;;;;;;;;;5049581;28;20049;-78
2022/08/25 10:30:58;;;;;;;4.93;1.65;;;;;;;;;;5049242;28;20110;-78
2022/08/25 10:33:44;;;;;;;3.95;1.70;;;;;;;;;;5032239;28;20043;-78
2022/08/25 10:36:16;;;;;;;3.80;1.80;;;;;;;;;;5050752;28;20041;-78
2022/08/25 10:38:44;;;;;;;4.78;1.60;;;;;;;;;;5054775;28;20047;-78
2022/08/25 10:41:16;;;;;;;3.85;1.80;;;;;;;;;;5033401;28;20444;-78
2022/08/25 10:43:51;;;;;;;4.93;2.00;;;;;;;;;;5065038;28;20048;-78
2022/08/25 10:46:27;;;;;;;4.10;1.80;;;;;;;;;;5043998;28;20497;-78
2022/08/25 10:48:53;;;;;;;2.58;1.80;;;;;;;;;;5033474;28;20063;-78
2022/08/25 10:51:32;;;;;;;3.60;1.63;;;;;;;;;;5032897;28;20045;-77
2022/08/25 10:54:04;;;;;;;4.35;1.80;;;;;;;;;;5049859;28;20039;-78
2022/08/25 10:56:34;;;;;;;6.18;1.90;;;;;;;;;;5048935;28;20116;-78
2022/08/25 10:59:07;;;;;;;4.30;1.98;;;;;;;;;;5048916;28;20061;-79
2022/08/25 11:01:49;;;;;;;4.18;1.80;;;;;;;;;;5049463;28;20531;-78
2022/08/25 11:04:19;;;;;;;4.70;1.73;;;;;;;;;;5050189;28;20033;-77
2022/08/25 11:06:51;;;;;;;5.50;2.10;;;;;;;;;;5050829;28;20044;-79
2022/08/25 11:09:20;;;;;;;5.07;2.30;;;;;;;;;;5054130;28;20033;-79
2022/08/25 11:11:58;;;;;;;7.53;2.28;;;;;;;;;;5054059;28;20574;-79
2022/08/25 11:14:35;;;;;;;3.28;1.80;;;;;;;;;;5054256;28;20049;-77
2022/08/25 11:17:09;;;;;;;6.57;2.20;;;;;;;;;;5054351;28;20124;-78
2022/08/25 11:19:37;;;;;;;6.68;1.83;;;;;;;;;;5053507;28;20037;-78
2022/08/25 11:22:11;;;;;;;5.95;2.20;;;;;;;;;;5054810;28;20474;-77
2022/08/25 11:24:58;;;;;;;4.07;2.08;;;;;;;;;;5053848;28;20043;-78
2022/08/25 11:27:30;;;;;;;6.10;2.05;;;;;;;;;;5032823;28;20087;-78
2022/08/25 11:30:02;;;;;;;4.15;2.05;;;;;;;;;;5053438;28;20072;-77
2022/08/25 11:32:32;;;;;;;4.20;2.08;;;;;;;;;;5054041;28;20033;-77
2022/08/25 11:35:00;;;;;;;7.78;2.30;;;;;;;;;;5053647;28;20505;-77
2022/08/25 11:37:27;;;;;;;3.65;2.10;;;;;;;;;;5053685;28;20033;-77
2022/08/25 11:40:02;;;;;;;4.88;2.58;;;;;;;;;;5052899;28;20041;-77
2022/08/25 11:42:31;;;;;;;4.88;2.20;;;;;;;;;;5053490;28;20485;-77
2022/08/25 11:45:05;;;;;;;6.75;2.20;;;;;;;;;;5049720;28;20044;-77
2022/08/25 11:47:31;;;;;;;5.93;2.15;;;;;;;;;;5053355;28;20045;-79
2022/08/25 11:49:57;;;;;;;5.65;2.03;;;;;;;;;;5052768;28;20132;-80
2022/08/25 11:52:33;;;;;;;3.78;2.20;;;;;;;;;;5036394;28;20048;-80
2022/08/25 11:55:25;;;;;;;4.80;2.00;;;;;;;;;;5035518;28;20488;-79
2022/08/25 11:58:11;;;;;;;8.73;2.10;;;;;;;;;;5028863;28;20053;-79
2022/08/25 12:00:42;;;;;;;3.33;1.98;;;;;;;;;;5069567;28;20439;-77
2022/08/25 12:03:27;;;;;;;4.55;2.30;;;;;;;;;;5053358;28;20580;-78
2022/08/25 12:06:13;;;;;;;5.78;2.10;;;;;;;;;;5052628;28;20037;-76
2022/08/25 12:08:51;;;;;;;4.28;1.80;;;;;;;;;;5060266;28;20060;-77
2022/08/25 12:11:36;;;;;;;4.60;1.90;;;;;;;;;;5051630;28;20043;-77
2022/08/25 12:14:36;;;;;;;5.00;2.20;;;;;;;;;;5047744;28;20047;-79
2022/08/25 12:17:17;;;;;;;7.45;2.50;;;;;;;;;;5052711;28;20486;-76
2022/08/25 12:19:43;;;;;;;5.20;2.30;;;;;;;;;;5044950;28;20479;-77
2022/08/25 12:22:09;;;;;;;5.68;2.38;;;;;;;;;;5059199;28;20037;-76
2022/08/25 12:24:44;;;;;;;5.32;2.20;;;;;;;;;;5049613;28;20040;-76
2022/08/25 12:27:36;;;;;;;2.88;1.80;;;;;;;;;;5043503;28;20551;-77
2022/08/25 12:30:32;;;;;;;4.95;2.15;;;;;;;;;;5049217;28;20491;-77
2022/08/25 12:33:17;;;;;;;5.28;1.90;;;;;;;;;;5030411;28;20063;-77
2022/08/25 12:35:54;;;;;;;2.45;1.80;;;;;;;;;;5050357;28;20512;-77
2022/08/25 12:38:34;;;;;;;3.75;1.95;;;;;;;;;;5048773;28;20045;-77
2022/08/25 12:41:08;;;;;;;5.55;1.90;;;;;;;;;;5042901;28;20497;-77
2022/08/25 12:43:35;;;;;;;5.03;1.70;;;;;;;;;;5050805;28;20045;-77
2022/08/25 12:46:29;;;;;;;3.38;1.90;;;;;;;;;;5052085;28;20064;-77
2022/08/25 12:49:04;;;;;;;6.60;2.10;;;;;;;;;;5029721;28;20118;-77
2022/08/25 12:51:46;;;;;;;3.15;2.05;;;;;;;;;;5050923;28;20098;-76
2022/08/25 12:54:16;;;;;;;3.30;1.80;;;;;;;;;;5044784;28;20068;-76
2022/08/25 12:56:45;;;;;;;5.13;1.98;;;;;;;;;;5051193;28;20052;-77
2022/08/25 12:59:16;;;;;;;4.97;1.85;;;;;;;;;;5049782;28;20040;-77
2022/08/25 13:01:54;;;;;;;4.35;1.90;;;;;;;;;;5052262;28;20033;-77
2022/08/25 13:04:29;;;;;;;4.13;1.98;;;;;;;;;;5069131;28;20045;-78
2022/08/25 13:07:04;;;;;;;5.30;1.98;;;;;;;;;;5052129;28;20462;-78
2022/08/25 13:09:36;;;;;;;6.30;1.80;;;;;;;;;;5052216;28;20414;-77
2022/08/25 13:12:06;;;;;;;5.38;1.67;;;;;;;;;;5051386;28;20095;-77
2022/08/25 13:14:40;;;;;;;2.72;1.60;;;;;;;;;;5068609;28;20520;-77
2022/08/25 13:17:07;;;;;;;7.73;2.00;;;;;;;;;;5050258;28;20116;-78
2022/08/25 13:19:33;;;;;;;3.67;1.60;;;;;;;;;;5051455;28;20048;-79
2022/08/25 13:22:01;;;;;;;6.55;1.83;;;;;;;;;;5051261;28;20045;-79
2022/08/25 13:24:29;;;;;;;3.83;2.00;;;;;;;;;;5051464;28;20037;-79
2022/08/25 13:26:57;;;;;;;4.47;1.80;;;;;;;;;;5046072;28;20040;-79
2022/08/25 13:29:24;;;;;;;3.03;1.80;;;;;;;;;;5033103;28;20051;-79
2022/08/25 13:31:54;;;;;;;3.72;1.60;;;;;;;;;;5036738;28;20049;-79
2022/08/25 13:34:22;;;;;;;2.30;1.55;;;;;;;;;;5030210;28;20401;-79
2022/08/25 13:39:33;;;;;;;;;;;;;;;;;;5067413;28;20536;-78
2022/08/25 13:42:00;;;;;;;2.65;1.60;;;;;;;;;;5061406;28;19917;-78
2022/08/25 13:44:27;;;;;;;3.00;1.50;;;;;;;;;;5042593;28;20114;-78
2022/08/25 13:47:19;;;;;;;3.00;1.60;;;;;;;;;;5050079;28;20043;-78
2022/08/25 13:49:46;;;;;;;6.38;1.45;;;;;;;;;;5034819;28;20053;-79
2022/08/25 13:52:27;;;;;;;4.80;1.60;;;;;;;;;;5050698;28;20498;-78
2022/08/25 13:54:58;;;;;;;3.75;1.60;;;;;;;;;;5050015;28;20033;-81
2022/08/25 13:57:26;;;;;;;2.28;1.45;;;;;;;;;;5043369;28;20406;-81
2022/08/25 13:59:59;;;;;;;2.55;1.50;;;;;;;;;;5051509;28;20069;-81
2022/08/25 14:02:58;;;;;;;5.28;1.40;;;;;;;;;;5035608;28;20067;-80
2022/08/25 14:05:41;;;;;;;3.38;1.55;;;;;;;;;;5030246;28;20045;-81
2022/08/25 14:08:24;;;;;;;2.42;1.50;;;;;;;;;;5038537;28;20048;-81
2022/08/25 14:11:01;;;;;;;2.33;1.40;;;;;;;;;;5034687;28;20048;-80
2022/08/25 14:13:27;;;;;;;3.05;1.60;;;;;;;;;;5066837;28;20440;-80
2022/08/25 14:15:53;;;;;;;4.55;1.35;;;;;;;;;;5050149;28;20045;-81
2022/08/25 14:18:29;;;;;;;2.00;1.30;;;;;;;;;;5051068;28;20094;-80
2022/08/25 14:20:56;;;;;;;4.10;1.42;;;;;;;;;;5050847;28;20045;-81
2022/08/25 14:23:26;;;;;;;3.40;1.55;;;;;;;;;;5050781;28;20045;-80
2022/08/25 14:25:53;;;;;;;3.80;1.42;;;;;;;;;;5052132;28;20036;-81
2022/08/25 14:28:20;;;;;;;8.68;1.80;;;;;;;;;;5050161;28;20120;-80
2022/08/25 14:30:48;;;;;;;2.33;1.50;;;;;;;;;;5034860;28;20102;-80
2022/08/25 14:33:16;;;;;;;3.53;1.42;;;;;;;;;;5051910;28;20075;-80
2022/08/25 14:35:44;;;;;;;4.75;1.90;;;;;;;;;;5051044;28;20052;-81
2022/08/25 14:38:11;;;;;;;8.77;1.90;;;;;;;;;;5052207;28;20132;-80
2022/08/25 14:40:38;;;;;;;5.70;1.60;;;;;;;;;;5050670;28;20068;-81
2022/08/25 14:43:04;;;;;;;4.25;1.98;;;;;;;;;;5052683;28;20056;-82
2022/08/25 14:45:30;;;;;;;3.20;1.73;;;;;;;;;;5044868;28;20176;-81
2022/08/25 14:47:57;;;;;;;3.70;1.60;;;;;;;;;;5020367;28;20076;-81
2022/08/25 14:50:23;;;;;;;3.10;1.83;;;;;;;;;;5042501;28;20071;-81
2022/08/25 14:52:49;;;;;;;3.83;1.60;;;;;;;;;;5027161;28;20045;-81
2022/08/25 14:55:16;;;;;;;2.70;1.70;;;;;;;;;;5049142;28;20041;-81
2022/08/25 14:57:42;;;;;;;4.30;1.92;;;;;;;;;;5038256;28;20084;-81
2022/08/25 15:00:10;;;;;;;4.82;1.85;;;;;;;;;;5049609;28;20037;-81
2022/08/25 15:02:38;;;;;;;2.60;1.90;;;;;;;;;;5052676;28;20044;-81
2022/08/25 15:05:07;;;;;;;3.40;1.85;;;;;;;;;;5054404;28;20508;-81